Time;durP1;ratioP1;P1;durP2;ratioP2;P2;SDS_P1;SDS_P2;PMS_P1;PMS_P2;Temp;Humidity;BMP_temperature;BMP_pressure;BME280_temperature;BME280_humidity;BME280_pressure;Samples;Min_cycle;Max_cycle;Signal;HPM_P1;HPM_P2
2022/11/27 00:01:53;;;;;;;26.25;5.75;;;;;;;;;;5029312;28;20032;-77
2022/11/27 00:04:19;;;;;;;31.75;7.35;;;;;;;;;;5034654;28;20083;-78
2022/11/27 00:06:45;;;;;;;18.52;6.15;;;;;;;;;;5016829;28;20476;-77
2022/11/27 00:09:13;;;;;;;23.48;6.68;;;;;;;;;;5034498;28;20519;-77
2022/11/27 00:11:39;;;;;;;22.80;6.63;;;;;;;;;;5034753;28;20453;-78
2022/11/27 00:14:05;;;;;;;27.30;5.88;;;;;;;;;;5034415;28;20495;-77
2022/11/27 00:16:31;;;;;;;22.13;6.22;;;;;;;;;;5034670;28;20029;-77
2022/11/27 00:18:58;;;;;;;21.38;5.75;;;;;;;;;;5034375;28;20562;-78
2022/11/27 00:21:25;;;;;;;26.77;6.60;;;;;;;;;;5016652;28;20018;-77
2022/11/27 00:23:52;;;;;;;18.02;5.53;;;;;;;;;;5034516;28;20026;-77
2022/11/27 00:26:20;;;;;;;20.88;5.80;;;;;;;;;;5034207;28;20100;-78
2022/11/27 00:28:46;;;;;;;26.67;6.35;;;;;;;;;;5034116;28;20037;-77
2022/11/27 00:31:16;;;;;;;19.60;5.85;;;;;;;;;;5033129;28;20034;-78
2022/11/27 00:33:42;;;;;;;21.70;5.70;;;;;;;;;;5034172;28;20037;-77
2022/11/27 00:36:09;;;;;;;20.55;5.90;;;;;;;;;;5034164;28;20448;-77
2022/11/27 00:38:37;;;;;;;29.52;6.15;;;;;;;;;;5020698;28;20038;-77
2022/11/27 00:41:07;;;;;;;24.77;6.57;;;;;;;;;;5014170;28;20029;-77
2022/11/27 00:43:33;;;;;;;21.23;6.07;;;;;;;;;;5014312;28;20054;-77
2022/11/27 00:46:00;;;;;;;13.55;4.85;;;;;;;;;;5014257;28;20033;-78
2022/11/27 00:48:26;;;;;;;21.27;5.40;;;;;;;;;;5014183;28;20477;-77
2022/11/27 00:50:52;;;;;;;18.35;6.05;;;;;;;;;;5007531;28;20022;-77
2022/11/27 00:53:18;;;;;;;14.57;5.55;;;;;;;;;;4996506;28;20408;-77
2022/11/27 00:55:45;;;;;;;24.40;5.78;;;;;;;;;;5014129;28;20544;-78
2022/11/27 00:58:11;;;;;;;17.42;5.35;;;;;;;;;;5013763;28;20022;-77
2022/11/27 01:00:37;;;;;;;24.65;5.47;;;;;;;;;;5014168;28;20022;-78
2022/11/27 01:03:03;;;;;;;23.73;5.88;;;;;;;;;;4996296;28;20022;-77
2022/11/27 01:05:29;;;;;;;15.52;4.90;;;;;;;;;;5028775;28;20358;-77
2022/11/27 01:07:55;;;;;;;16.63;5.32;;;;;;;;;;5033660;28;20747;-77
2022/11/27 01:10:21;;;;;;;17.73;5.55;;;;;;;;;;5033307;28;20404;-78
2022/11/27 01:12:50;;;;;;;28.08;5.38;;;;;;;;;;5033630;28;20103;-77
2022/11/27 01:15:16;;;;;;;24.30;5.63;;;;;;;;;;5015758;28;20036;-77
2022/11/27 01:17:43;;;;;;;26.50;6.95;;;;;;;;;;5033220;28;20025;-77
2022/11/27 01:20:09;;;;;;;24.27;5.10;;;;;;;;;;5033165;28;20072;-78
2022/11/27 01:22:35;;;;;;;18.35;4.97;;;;;;;;;;5014133;28;20026;-77
2022/11/27 01:25:01;;;;;;;25.08;5.95;;;;;;;;;;5013790;28;20084;-78
2022/11/27 01:27:27;;;;;;;19.35;5.00;;;;;;;;;;5008786;28;20056;-78
2022/11/27 01:29:53;;;;;;;20.00;5.40;;;;;;;;;;5033015;28;20030;-77
2022/11/27 01:32:19;;;;;;;22.67;6.05;;;;;;;;;;5032404;28;20026;-77
2022/11/27 01:34:45;;;;;;;17.65;5.85;;;;;;;;;;5029604;28;20184;-78
2022/11/27 01:37:11;;;;;;;20.20;5.63;;;;;;;;;;5030963;28;20052;-78
2022/11/27 01:39:37;;;;;;;17.02;5.35;;;;;;;;;;5013602;28;20500;-77
2022/11/27 01:42:03;;;;;;;19.83;5.28;;;;;;;;;;5013218;28;20033;-77
2022/11/27 01:44:32;;;;;;;19.10;5.78;;;;;;;;;;4995676;28;20034;-78
2022/11/27 01:47:03;;;;;;;20.80;6.43;;;;;;;;;;5025193;28;20029;-77
2022/11/27 01:49:35;;;;;;;21.10;5.40;;;;;;;;;;5032679;28;20053;-77
2022/11/27 01:52:01;;;;;;;15.90;5.28;;;;;;;;;;5032659;28;20100;-77
2022/11/27 01:54:34;;;;;;;24.77;6.78;;;;;;;;;;5032990;28;20035;-78
2022/11/27 01:57:02;;;;;;;22.10;7.28;;;;;;;;;;5032734;28;20067;-77
2022/11/27 01:59:28;;;;;;;18.88;5.53;;;;;;;;;;5032508;28;20025;-77
2022/11/27 02:01:54;;;;;;;19.45;5.15;;;;;;;;;;5015000;28;20491;-77
2022/11/27 02:04:20;;;;;;;19.20;5.30;;;;;;;;;;5032227;28;20087;-77
2022/11/27 02:06:47;;;;;;;16.92;5.53;;;;;;;;;;5032085;28;20040;-77
2022/11/27 02:09:13;;;;;;;17.08;5.68;;;;;;;;;;5032526;28;20053;-77
2022/11/27 02:11:39;;;;;;;23.33;5.10;;;;;;;;;;5032437;28;20025;-78
2022/11/27 02:14:18;;;;;;;17.40;4.68;;;;;;;;;;5032632;28;20028;-78
2022/11/27 02:16:53;;;;;;;17.20;5.20;;;;;;;;;;5031672;28;20029;-77
2022/11/27 02:19:22;;;;;;;22.10;5.45;;;;;;;;;;5012704;28;20030;-77
2022/11/27 02:21:57;;;;;;;19.95;5.35;;;;;;;;;;5012513;28;20022;-77
2022/11/27 02:24:38;;;;;;;13.70;4.95;;;;;;;;;;5012514;28;20022;-77
2022/11/27 02:27:13;;;;;;;19.08;5.75;;;;;;;;;;5012463;28;20044;-78
2022/11/27 02:29:40;;;;;;;16.65;5.30;;;;;;;;;;5017075;28;20057;-77
2022/11/27 02:32:14;;;;;;;18.38;5.22;;;;;;;;;;4996205;28;20030;-77
2022/11/27 02:34:43;;;;;;;16.05;5.57;;;;;;;;;;5027337;28;20037;-77
2022/11/27 02:37:13;;;;;;;15.20;5.00;;;;;;;;;;5030261;28;20491;-77
2022/11/27 02:40:05;;;;;;;23.75;5.55;;;;;;;;;;5012380;28;20058;-77
2022/11/27 02:42:35;;;;;;;14.32;4.78;;;;;;;;;;4989576;28;20030;-78
2022/11/27 02:45:06;;;;;;;17.98;5.15;;;;;;;;;;5012227;28;20018;-77
2022/11/27 02:47:33;;;;;;;14.18;4.88;;;;;;;;;;5029424;28;20030;-77
2022/11/27 02:49:59;;;;;;;13.95;4.70;;;;;;;;;;5014260;28;20040;-77
2022/11/27 02:52:27;;;;;;;14.25;5.40;;;;;;;;;;5032169;28;20044;-77
2022/11/27 02:54:55;;;;;;;22.27;5.70;;;;;;;;;;5014584;28;20068;-77
2022/11/27 02:57:23;;;;;;;16.75;5.22;;;;;;;;;;5031928;28;20052;-78
2022/11/27 02:59:50;;;;;;;19.55;5.88;;;;;;;;;;5032036;28;20032;-77
2022/11/27 03:02:18;;;;;;;20.75;5.78;;;;;;;;;;5032172;28;20352;-77
2022/11/27 03:04:47;;;;;;;20.02;5.53;;;;;;;;;;5031945;28;20037;-77
2022/11/27 03:07:16;;;;;;;19.50;5.53;;;;;;;;;;5031980;28;20484;-77
2022/11/27 03:09:46;;;;;;;22.00;5.40;;;;;;;;;;5013873;28;20042;-77
2022/11/27 03:12:13;;;;;;;20.27;5.30;;;;;;;;;;5032040;28;20025;-78
2022/11/27 03:14:40;;;;;;;22.75;5.70;;;;;;;;;;5031808;28;20492;-77
2022/11/27 03:17:25;;;;;;;14.57;5.47;;;;;;;;;;5033037;28;20022;-77
2022/11/27 03:20:08;;;;;;;17.48;5.50;;;;;;;;;;5015926;28;20038;-77
2022/11/27 03:22:34;;;;;;;19.77;5.20;;;;;;;;;;5020522;28;20390;-77
2022/11/27 03:25:00;;;;;;;22.20;5.32;;;;;;;;;;5018170;28;20033;-77
2022/11/27 03:27:35;;;;;;;18.88;5.40;;;;;;;;;;5034468;28;20140;-77
2022/11/27 03:30:02;;;;;;;18.52;5.53;;;;;;;;;;5017731;28;20029;-77
2022/11/27 03:32:28;;;;;;;18.15;5.15;;;;;;;;;;5022717;28;20095;-77
2022/11/27 03:34:54;;;;;;;17.52;4.90;;;;;;;;;;5032344;28;20041;-78
2022/11/27 03:37:21;;;;;;;25.45;5.95;;;;;;;;;;5035179;28;20037;-77
2022/11/27 03:39:47;;;;;;;16.70;5.68;;;;;;;;;;5035112;28;20029;-77
2022/11/27 03:42:37;;;;;;;18.40;5.43;;;;;;;;;;5035268;28;20041;-77
2022/11/27 03:45:21;;;;;;;17.88;5.78;;;;;;;;;;5027168;28;20029;-77
2022/11/27 03:48:06;;;;;;;15.43;4.97;;;;;;;;;;5034777;28;20036;-77
2022/11/27 03:50:44;;;;;;;13.90;4.75;;;;;;;;;;5035576;28;20021;-77
2022/11/27 03:53:16;;;;;;;10.27;4.45;;;;;;;;;;5017030;28;20376;-77
2022/11/27 03:55:51;;;;;;;13.27;4.35;;;;;;;;;;5034931;28;20037;-77
2022/11/27 03:58:22;;;;;;;15.55;4.03;;;;;;;;;;5034709;28;20038;-77
2022/11/27 04:00:50;;;;;;;12.85;4.00;;;;;;;;;;5034793;28;20057;-77
2022/11/27 04:03:21;;;;;;;12.45;3.90;;;;;;;;;;5034627;28;20033;-77
2022/11/27 04:05:47;;;;;;;9.88;3.50;;;;;;;;;;5034491;28;20155;-77
2022/11/27 04:08:13;;;;;;;16.60;4.82;;;;;;;;;;5034894;28;20041;-77
2022/11/27 04:10:39;;;;;;;11.18;3.55;;;;;;;;;;5034688;28;20033;-77
2022/11/27 04:13:05;;;;;;;8.68;3.60;;;;;;;;;;5034578;28;20033;-77
2022/11/27 04:15:31;;;;;;;11.48;3.40;;;;;;;;;;5034432;28;20034;-77
2022/11/27 04:17:57;;;;;;;8.80;3.60;;;;;;;;;;5034151;28;20120;-77
2022/11/27 04:20:23;;;;;;;13.52;3.53;;;;;;;;;;5016676;28;20057;-77
2022/11/27 04:22:49;;;;;;;13.80;3.55;;;;;;;;;;5034387;28;20026;-78
2022/11/27 04:25:15;;;;;;;16.05;3.88;;;;;;;;;;5034401;28;20017;-77
2022/11/27 04:27:41;;;;;;;15.23;3.83;;;;;;;;;;5033218;28;20041;-77
2022/11/27 04:30:07;;;;;;;18.63;3.80;;;;;;;;;;5034066;28;20021;-77
2022/11/27 04:32:33;;;;;;;11.23;3.65;;;;;;;;;;5033573;28;20535;-77
2022/11/27 04:35:00;;;;;;;13.82;3.50;;;;;;;;;;5019218;28;20042;-77
2022/11/27 04:37:26;;;;;;;18.10;4.10;;;;;;;;;;5014124;28;20025;-77
2022/11/27 04:39:52;;;;;;;11.50;3.08;;;;;;;;;;5014421;28;20069;-77
2022/11/27 04:42:18;;;;;;;12.70;3.75;;;;;;;;;;5014350;28;20358;-77
2022/11/27 04:44:44;;;;;;;11.93;3.67;;;;;;;;;;4996340;28;20365;-77
2022/11/27 04:47:10;;;;;;;11.18;3.42;;;;;;;;;;5028747;28;20534;-77
2022/11/27 04:49:36;;;;;;;18.05;4.13;;;;;;;;;;5033742;28;20029;-77
2022/11/27 04:52:02;;;;;;;11.07;3.33;;;;;;;;;;5033862;28;20025;-77
2022/11/27 04:54:28;;;;;;;12.18;3.65;;;;;;;;;;5033879;28;20033;-77
2022/11/27 04:56:54;;;;;;;11.77;2.90;;;;;;;;;;5033758;28;20061;-77
2022/11/27 04:59:21;;;;;;;12.95;3.20;;;;;;;;;;5033566;28;20036;-77
2022/11/27 05:01:47;;;;;;;13.23;3.35;;;;;;;;;;5033721;28;20049;-77
2022/11/27 05:04:13;;;;;;;12.18;3.28;;;;;;;;;;5033460;28;20026;-77
2022/11/27 05:06:39;;;;;;;12.00;3.33;;;;;;;;;;5033107;28;20116;-77
2022/11/27 05:09:05;;;;;;;11.93;3.25;;;;;;;;;;5033218;28;20049;-77
2022/11/27 05:11:31;;;;;;;10.70;2.97;;;;;;;;;;5033337;28;20041;-77
2022/11/27 05:14:16;;;;;;;11.65;3.30;;;;;;;;;;5033477;28;20029;-77
2022/11/27 05:16:50;;;;;;;8.68;2.83;;;;;;;;;;5033514;28;20494;-77
2022/11/27 05:19:17;;;;;;;13.23;2.75;;;;;;;;;;5013357;28;20038;-77
2022/11/27 05:21:44;;;;;;;10.88;2.78;;;;;;;;;;5013428;28;20017;-77
2022/11/27 05:24:10;;;;;;;9.77;2.53;;;;;;;;;;5031644;28;20710;-77
2022/11/27 05:26:37;;;;;;;10.75;3.47;;;;;;;;;;5033355;28;20025;-77
2022/11/27 05:29:03;;;;;;;6.57;2.58;;;;;;;;;;5031450;28;20032;-77
2022/11/27 05:31:29;;;;;;;8.68;2.70;;;;;;;;;;5032201;28;20029;-77
2022/11/27 05:33:55;;;;;;;16.10;3.35;;;;;;;;;;5026495;28;20108;-77
2022/11/27 05:36:21;;;;;;;11.93;3.28;;;;;;;;;;5013390;28;20034;-77
2022/11/27 05:38:47;;;;;;;11.65;3.38;;;;;;;;;;5029141;28;20395;-77
2022/11/27 05:41:13;;;;;;;10.95;2.67;;;;;;;;;;5032026;28;20037;-77
2022/11/27 05:43:40;;;;;;;7.90;2.85;;;;;;;;;;5032792;28;20075;-77
2022/11/27 05:46:07;;;;;;;13.18;3.08;;;;;;;;;;5032605;28;20072;-77
2022/11/27 05:48:34;;;;;;;11.50;3.05;;;;;;;;;;5032558;28;20033;-77
2022/11/27 05:51:00;;;;;;;15.02;3.45;;;;;;;;;;5032340;28;20033;-77
2022/11/27 05:53:26;;;;;;;13.32;3.45;;;;;;;;;;5032345;28;20032;-77
2022/11/27 05:55:52;;;;;;;9.70;3.00;;;;;;;;;;5032315;28;20025;-77
2022/11/27 05:58:19;;;;;;;10.10;2.97;;;;;;;;;;5014758;28;20025;-77
2022/11/27 06:00:45;;;;;;;9.88;3.08;;;;;;;;;;5032231;28;20026;-77
2022/11/27 06:03:11;;;;;;;13.32;3.40;;;;;;;;;;5032164;28;20025;-77
2022/11/27 06:05:40;;;;;;;8.93;3.05;;;;;;;;;;5032585;28;20097;-77
2022/11/27 06:08:06;;;;;;;9.25;3.00;;;;;;;;;;5032258;28;20037;-77
2022/11/27 06:10:33;;;;;;;12.40;3.40;;;;;;;;;;5032032;28;20057;-77
2022/11/27 06:12:59;;;;;;;9.40;2.88;;;;;;;;;;5031946;28;20025;-77
2022/11/27 06:15:25;;;;;;;8.23;3.03;;;;;;;;;;5014274;28;20095;-77
2022/11/27 06:17:51;;;;;;;12.23;3.33;;;;;;;;;;5021376;28;20029;-77
2022/11/27 06:20:19;;;;;;;7.70;3.40;;;;;;;;;;4994669;28;20034;-77
2022/11/27 06:22:45;;;;;;;11.50;3.30;;;;;;;;;;5019393;28;20057;-77
2022/11/27 06:25:11;;;;;;;13.13;3.13;;;;;;;;;;5031960;28;20384;-77
2022/11/27 06:27:37;;;;;;;8.80;3.25;;;;;;;;;;5030339;28;20057;-77
2022/11/27 06:30:05;;;;;;;12.25;3.40;;;;;;;;;;5023942;28;20093;-77
2022/11/27 06:32:31;;;;;;;16.85;5.15;;;;;;;;;;5025916;28;20079;-77
2022/11/27 06:34:57;;;;;;;12.10;3.20;;;;;;;;;;5016815;28;20113;-77
2022/11/27 06:37:23;;;;;;;16.88;3.72;;;;;;;;;;5017008;28;20021;-77
2022/11/27 06:39:49;;;;;;;10.82;3.92;;;;;;;;;;5031702;28;20032;-77
2022/11/27 06:42:15;;;;;;;11.52;3.20;;;;;;;;;;5031557;28;20477;-77
2022/11/27 06:44:41;;;;;;;10.15;3.42;;;;;;;;;;5031585;28;20036;-77
2022/11/27 06:47:07;;;;;;;12.77;4.03;;;;;;;;;;5013868;28;20048;-77
2022/11/27 06:49:34;;;;;;;10.45;3.63;;;;;;;;;;4997521;28;20053;-77
2022/11/27 06:52:00;;;;;;;16.27;4.40;;;;;;;;;;5033354;28;20443;-77
2022/11/27 06:54:26;;;;;;;15.88;4.05;;;;;;;;;;5035889;28;20108;-77
2022/11/27 06:56:52;;;;;;;16.17;3.78;;;;;;;;;;5035615;28;20030;-77
2022/11/27 06:59:18;;;;;;;9.07;3.78;;;;;;;;;;5035646;28;20036;-77
2022/11/27 07:01:45;;;;;;;11.38;3.85;;;;;;;;;;5035587;28;20033;-77
2022/11/27 07:04:12;;;;;;;13.57;4.38;;;;;;;;;;5017580;28;20030;-77
2022/11/27 07:06:38;;;;;;;17.45;4.22;;;;;;;;;;5035409;28;20364;-77
2022/11/27 07:09:05;;;;;;;9.45;4.05;;;;;;;;;;5035028;28;20068;-77
2022/11/27 07:11:31;;;;;;;12.10;4.40;;;;;;;;;;5035608;28;20710;-77
2022/11/27 07:13:58;;;;;;;10.50;4.07;;;;;;;;;;5035163;28;20484;-77
2022/11/27 07:16:24;;;;;;;14.00;5.47;;;;;;;;;;5035606;28;20029;-77
2022/11/27 07:18:52;;;;;;;18.65;4.85;;;;;;;;;;5035193;28;20029;-77
2022/11/27 07:21:18;;;;;;;16.67;4.70;;;;;;;;;;5035596;28;20021;-77
2022/11/27 07:23:44;;;;;;;12.50;4.25;;;;;;;;;;5035373;28;20017;-77
2022/11/27 07:26:17;;;;;;;11.73;4.13;;;;;;;;;;5035477;28;20163;-77
2022/11/27 07:28:44;;;;;;;13.52;4.28;;;;;;;;;;5022168;28;20448;-77
2022/11/27 07:31:11;;;;;;;12.02;4.45;;;;;;;;;;5028249;28;20076;-78
2022/11/27 07:33:37;;;;;;;12.00;4.13;;;;;;;;;;5023200;28;20026;-78
2022/11/27 07:36:05;;;;;;;12.48;4.32;;;;;;;;;;5035128;28;20056;-78
2022/11/27 07:38:31;;;;;;;12.55;4.55;;;;;;;;;;5035273;28;20033;-78
2022/11/27 07:41:00;;;;;;;14.43;4.88;;;;;;;;;;5035364;28;20020;-78
2022/11/27 07:43:27;;;;;;;17.40;4.35;;;;;;;;;;5034983;28;20382;-78
2022/11/27 07:45:53;;;;;;;15.32;4.88;;;;;;;;;;5035049;28;20511;-78
2022/11/27 07:48:19;;;;;;;13.48;4.88;;;;;;;;;;5017372;28;20038;-78
2022/11/27 07:50:45;;;;;;;14.27;5.00;;;;;;;;;;5034953;28;20121;-78
2022/11/27 07:53:11;;;;;;;18.20;5.85;;;;;;;;;;5028460;28;20025;-78
2022/11/27 07:55:38;;;;;;;18.17;5.13;;;;;;;;;;5018014;28;20029;-79
2022/11/27 07:58:04;;;;;;;15.38;5.50;;;;;;;;;;5026460;28;20113;-78
2022/11/27 08:00:30;;;;;;;15.77;5.35;;;;;;;;;;5015466;28;20026;-79
2022/11/27 08:02:56;;;;;;;14.60;4.88;;;;;;;;;;5012063;28;20017;-78
2022/11/27 08:05:22;;;;;;;15.27;5.55;;;;;;;;;;5029222;28;20034;-79
2022/11/27 08:07:48;;;;;;;13.90;5.05;;;;;;;;;;5029381;28;20026;-78
2022/11/27 08:10:14;;;;;;;16.80;5.18;;;;;;;;;;5022058;28;20255;-78
2022/11/27 08:12:40;;;;;;;18.55;5.43;;;;;;;;;;5004377;28;20034;-79
2022/11/27 08:15:07;;;;;;;12.57;6.53;;;;;;;;;;5005452;28;20049;-78
2022/11/27 08:17:33;;;;;;;14.48;5.55;;;;;;;;;;5027402;28;20116;-78
2022/11/27 08:19:59;;;;;;;16.08;5.75;;;;;;;;;;4998757;28;20052;-78
2022/11/27 08:22:25;;;;;;;17.33;5.60;;;;;;;;;;5025867;28;20026;-78
2022/11/27 08:24:51;;;;;;;18.33;5.70;;;;;;;;;;5023463;28;20547;-78
2022/11/27 08:27:18;;;;;;;21.38;5.93;;;;;;;;;;5025798;28;20093;-78
2022/11/27 08:29:44;;;;;;;13.68;5.30;;;;;;;;;;5021655;28;20507;-78
2022/11/27 08:32:10;;;;;;;14.18;5.90;;;;;;;;;;5030772;28;20095;-78
2022/11/27 08:34:36;;;;;;;11.73;5.65;;;;;;;;;;5026481;28;20535;-78
2022/11/27 08:37:06;;;;;;;25.15;5.40;;;;;;;;;;5008004;28;20036;-78
2022/11/27 08:39:32;;;;;;;18.75;5.15;;;;;;;;;;5017623;28;20045;-78
2022/11/27 08:41:58;;;;;;;15.30;5.82;;;;;;;;;;5021236;28;20067;-78
2022/11/27 08:44:24;;;;;;;15.95;5.47;;;;;;;;;;5024810;28;20037;-78
2022/11/27 08:46:50;;;;;;;13.93;5.50;;;;;;;;;;5041057;28;20026;-78
2022/11/27 08:49:16;;;;;;;15.65;7.00;;;;;;;;;;5024827;28;20033;-78
2022/11/27 08:51:42;;;;;;;14.23;5.88;;;;;;;;;;5034131;28;20440;-78
2022/11/27 08:54:08;;;;;;;15.13;5.68;;;;;;;;;;5033930;28;20456;-78
2022/11/27 08:56:35;;;;;;;17.85;6.15;;;;;;;;;;5012576;28;20242;-77
2022/11/27 08:59:01;;;;;;;13.68;5.90;;;;;;;;;;5005466;28;20387;-78
2022/11/27 09:01:28;;;;;;;16.90;6.00;;;;;;;;;;5022512;28;20108;-78
2022/11/27 09:03:55;;;;;;;18.70;6.13;;;;;;;;;;5030134;28;20766;-78
2022/11/27 09:06:29;;;;;;;17.42;5.90;;;;;;;;;;5029719;28;20033;-78
2022/11/27 09:08:58;;;;;;;14.60;6.30;;;;;;;;;;5006678;28;20109;-78
2022/11/27 09:11:25;;;;;;;24.13;6.63;;;;;;;;;;5018912;28;20109;-78
2022/11/27 09:13:52;;;;;;;18.48;7.45;;;;;;;;;;5024662;28;20040;-78
2022/11/27 09:16:19;;;;;;;13.23;6.20;;;;;;;;;;4996284;28;20026;-79
2022/11/27 09:18:45;;;;;;;16.95;7.28;;;;;;;;;;5032463;28;20021;-78
2022/11/27 09:21:12;;;;;;;15.60;6.68;;;;;;;;;;5033338;28;20021;-79
2022/11/27 09:23:39;;;;;;;17.00;6.85;;;;;;;;;;5019864;28;20026;-78
2022/11/27 09:26:06;;;;;;;18.08;7.20;;;;;;;;;;5019276;28;20080;-79
2022/11/27 09:28:32;;;;;;;22.35;6.82;;;;;;;;;;5022306;28;20036;-78
2022/11/27 09:31:00;;;;;;;22.02;7.03;;;;;;;;;;5029723;28;20117;-79
2022/11/27 09:33:27;;;;;;;14.02;6.63;;;;;;;;;;5033445;28;20032;-79
2022/11/27 09:35:53;;;;;;;19.50;7.65;;;;;;;;;;5033246;28;20029;-79
2022/11/27 09:38:19;;;;;;;17.92;7.15;;;;;;;;;;5033088;28;20029;-79
2022/11/27 09:40:52;;;;;;;19.38;7.03;;;;;;;;;;5033240;28;20088;-78
2022/11/27 09:43:22;;;;;;;16.77;6.55;;;;;;;;;;5011886;28;20034;-79
2022/11/27 09:45:53;;;;;;;16.23;7.40;;;;;;;;;;5020784;28;20024;-78
2022/11/27 09:48:23;;;;;;;17.20;6.90;;;;;;;;;;5014169;28;20071;-78
2022/11/27 09:50:52;;;;;;;11.73;6.32;;;;;;;;;;5015318;28;20149;-79
2022/11/27 09:53:24;;;;;;;19.17;7.03;;;;;;;;;;5020042;28;20061;-78
2022/11/27 09:55:51;;;;;;;15.32;6.40;;;;;;;;;;5019038;28;20022;-79
2022/11/27 09:58:23;;;;;;;19.95;6.85;;;;;;;;;;4995539;28;20030;-78
2022/11/27 10:00:49;;;;;;;16.00;6.90;;;;;;;;;;5011961;28;20029;-78
2022/11/27 10:03:18;;;;;;;15.90;7.45;;;;;;;;;;5013121;28;20030;-79
2022/11/27 10:06:03;;;;;;;13.60;6.88;;;;;;;;;;5003193;28;20033;-79
2022/11/27 10:08:33;;;;;;;20.75;6.72;;;;;;;;;;5015429;28;20435;-78
2022/11/27 10:11:00;;;;;;;16.50;6.93;;;;;;;;;;5032693;28;20116;-78
2022/11/27 10:13:37;;;;;;;18.65;6.97;;;;;;;;;;5015050;28;20060;-79
2022/11/27 10:16:10;;;;;;;19.73;8.20;;;;;;;;;;5032818;28;20464;-79
2022/11/27 10:18:36;;;;;;;13.05;6.80;;;;;;;;;;5032494;28;20075;-78
2022/11/27 10:21:21;;;;;;;19.02;6.70;;;;;;;;;;5032687;28;20021;-79
2022/11/27 10:24:02;;;;;;;15.77;6.63;;;;;;;;;;5032455;28;20423;-79
2022/11/27 10:26:40;;;;;;;13.13;6.95;;;;;;;;;;5014340;28;20595;-79
2022/11/27 10:29:19;;;;;;;19.02;6.80;;;;;;;;;;5014139;28;20032;-78
2022/11/27 10:31:56;;;;;;;55.58;29.08;;;;;;;;;;5032201;28;20075;-79
2022/11/27 10:34:28;;;;;;;33.70;18.17;;;;;;;;;;5014841;28;20033;-79
2022/11/27 10:36:55;;;;;;;39.08;15.85;;;;;;;;;;5032628;28;20041;-79
2022/11/27 10:39:32;;;;;;;20.50;8.18;;;;;;;;;;5015005;28;20083;-78
2022/11/27 10:42:09;;;;;;;25.60;13.40;;;;;;;;;;5032686;28;20060;-78
2022/11/27 10:44:46;;;;;;;15.57;7.05;;;;;;;;;;5032653;28;20104;-79
2022/11/27 10:47:13;;;;;;;16.65;6.85;;;;;;;;;;5032436;28;20046;-78
2022/11/27 10:49:40;;;;;;;15.48;7.68;;;;;;;;;;5032531;28;20079;-79
2022/11/27 10:52:17;;;;;;;16.15;7.85;;;;;;;;;;5032668;28;20021;-78
2022/11/27 10:54:44;;;;;;;18.50;7.13;;;;;;;;;;5032290;28;20026;-78
2022/11/27 10:57:29;;;;;;;17.17;7.68;;;;;;;;;;5014969;28;20116;-79
2022/11/27 11:00:06;;;;;;;16.92;9.32;;;;;;;;;;5032353;28;20033;-78
2022/11/27 11:02:34;;;;;;;19.65;9.85;;;;;;;;;;5032569;28;20100;-78
2022/11/27 11:05:32;;;;;;;14.95;7.25;;;;;;;;;;5032560;28;20033;-79
2022/11/27 11:08:06;;;;;;;14.32;7.25;;;;;;;;;;4982857;28;20034;-78
2022/11/27 11:10:34;;;;;;;15.63;6.57;;;;;;;;;;5032474;28;20492;-78
2022/11/27 11:13:04;;;;;;;17.98;7.18;;;;;;;;;;5032494;28;20025;-79
2022/11/27 11:15:31;;;;;;;12.85;6.85;;;;;;;;;;5032207;28;20021;-79
2022/11/27 11:17:57;;;;;;;17.30;6.93;;;;;;;;;;5014493;28;20340;-79
2022/11/27 11:20:24;;;;;;;17.88;6.75;;;;;;;;;;5032305;28;20037;-78
2022/11/27 11:22:51;;;;;;;21.42;8.13;;;;;;;;;;5014544;28;20414;-79
2022/11/27 11:25:18;;;;;;;19.52;8.10;;;;;;;;;;5014787;28;20053;-79
2022/11/27 11:27:44;;;;;;;19.67;8.10;;;;;;;;;;5031438;28;20028;-79
2022/11/27 11:30:19;;;;;;;19.77;6.88;;;;;;;;;;5032021;28;20022;-78
2022/11/27 11:32:48;;;;;;;17.13;7.38;;;;;;;;;;5030784;28;20030;-79
2022/11/27 11:35:28;;;;;;;17.45;6.95;;;;;;;;;;5032318;28;20033;-78
2022/11/27 11:37:54;;;;;;;16.45;7.13;;;;;;;;;;5032014;28;20025;-78
2022/11/27 11:40:25;;;;;;;16.08;8.18;;;;;;;;;;5036043;28;20472;-78
2022/11/27 11:42:59;;;;;;;16.20;7.03;;;;;;;;;;5018181;28;20480;-78
2022/11/27 11:45:29;;;;;;;15.90;7.22;;;;;;;;;;5035641;28;20442;-78
2022/11/27 11:47:58;;;;;;;18.48;8.05;;;;;;;;;;5035556;28;20053;-79
2022/11/27 11:50:40;;;;;;;21.08;8.13;;;;;;;;;;5035542;28;20053;-79
2022/11/27 11:53:35;;;;;;;18.05;7.90;;;;;;;;;;5035467;28;20037;-78
2022/11/27 11:56:13;;;;;;;17.38;7.57;;;;;;;;;;5023002;28;20472;-79
2022/11/27 11:58:48;;;;;;;17.92;7.65;;;;;;;;;;5035217;28;20030;-79
2022/11/27 12:01:26;;;;;;;17.58;6.57;;;;;;;;;;5035396;28;20477;-78
2022/11/27 12:04:07;;;;;;;18.35;8.52;;;;;;;;;;5034996;28;20468;-78
2022/11/27 12:06:51;;;;;;;15.57;7.97;;;;;;;;;;5035235;28;20026;-78
2022/11/27 12:09:20;;;;;;;15.13;7.80;;;;;;;;;;5008070;28;20170;-78
2022/11/27 12:12:05;;;;;;;17.25;7.82;;;;;;;;;;4995781;28;20026;-78
2022/11/27 12:14:44;;;;;;;15.88;7.38;;;;;;;;;;4995888;28;20053;-78
2022/11/27 12:17:10;;;;;;;28.98;17.17;;;;;;;;;;4995602;28;20018;-78
2022/11/27 12:19:47;;;;;;;16.02;7.70;;;;;;;;;;4995619;28;20022;-79
2022/11/27 12:22:13;;;;;;;13.43;6.15;;;;;;;;;;4995472;28;20077;-79
2022/11/27 12:25:01;;;;;;;16.13;7.32;;;;;;;;;;4995600;28;20023;-79
2022/11/27 12:27:32;;;;;;;20.40;6.85;;;;;;;;;;4993701;28;20621;-79
2022/11/27 12:30:18;;;;;;;17.35;8.27;;;;;;;;;;4994126;28;20037;-78
2022/11/27 12:33:25;;;;;;;13.95;6.78;;;;;;;;;;4995251;28;20109;-78
2022/11/27 12:35:52;;;;;;;14.50;7.55;;;;;;;;;;4973577;28;20039;-78
2022/11/27 12:38:36;;;;;;;16.90;8.20;;;;;;;;;;4973547;28;20602;-78
2022/11/27 12:41:02;;;;;;;15.60;8.00;;;;;;;;;;4987136;28;20058;-79
2022/11/27 12:43:32;;;;;;;17.55;7.82;;;;;;;;;;4995396;28;20064;-78
2022/11/27 12:45:58;;;;;;;17.05;7.40;;;;;;;;;;4995103;28;20076;-79
2022/11/27 12:48:30;;;;;;;16.33;7.45;;;;;;;;;;4993534;28;20397;-78
2022/11/27 12:51:00;;;;;;;13.18;7.22;;;;;;;;;;4976916;28;20038;-78
2022/11/27 12:53:29;;;;;;;14.27;6.78;;;;;;;;;;4975688;28;20113;-78
2022/11/27 12:56:03;;;;;;;16.23;7.10;;;;;;;;;;4975494;28;20422;-78
2022/11/27 12:58:33;;;;;;;15.75;7.18;;;;;;;;;;4975382;28;20031;-78
2022/11/27 13:01:22;;;;;;;13.23;6.55;;;;;;;;;;4975498;28;20355;-78
2022/11/27 13:03:48;;;;;;;11.82;6.30;;;;;;;;;;4974125;28;20030;-78
2022/11/27 13:06:18;;;;;;;12.73;6.38;;;;;;;;;;4988183;28;20165;-78
2022/11/27 13:08:44;;;;;;;16.05;6.65;;;;;;;;;;4997749;28;20045;-78
2022/11/27 13:11:12;;;;;;;16.75;6.60;;;;;;;;;;5033975;28;20779;-78
2022/11/27 13:13:41;;;;;;;15.55;6.60;;;;;;;;;;5033953;28;20388;-78
2022/11/27 13:16:18;;;;;;;12.43;6.78;;;;;;;;;;5034053;28;20017;-78
2022/11/27 13:18:54;;;;;;;14.43;6.72;;;;;;;;;;5018447;28;20073;-78
2022/11/27 13:21:25;;;;;;;13.63;7.28;;;;;;;;;;5014109;28;20022;-78
2022/11/27 13:23:51;;;;;;;13.73;6.90;;;;;;;;;;5030078;28;20491;-78
2022/11/27 13:26:29;;;;;;;14.23;7.40;;;;;;;;;;5033510;28;20104;-79
2022/11/27 13:28:57;;;;;;;13.70;7.53;;;;;;;;;;5033253;28;20030;-78
2022/11/27 13:31:27;;;;;;;13.35;6.90;;;;;;;;;;5011927;28;20392;-78
2022/11/27 13:34:02;;;;;;;11.85;6.80;;;;;;;;;;5013683;28;20033;-79
2022/11/27 13:36:37;;;;;;;16.75;7.18;;;;;;;;;;5014133;28;20067;-78
2022/11/27 13:39:03;;;;;;;14.27;6.97;;;;;;;;;;5013570;28;20022;-78
2022/11/27 13:41:32;;;;;;;16.27;8.52;;;;;;;;;;5013671;28;20037;-79
2022/11/27 13:43:58;;;;;;;17.10;8.13;;;;;;;;;;5013746;28;20101;-78
2022/11/27 13:46:28;;;;;;;16.45;8.77;;;;;;;;;;5013513;28;20140;-78
2022/11/27 13:48:56;;;;;;;13.05;7.18;;;;;;;;;;5013590;28;20021;-78
2022/11/27 13:51:32;;;;;;;12.68;7.07;;;;;;;;;;5013725;28;20025;-79
2022/11/27 13:54:19;;;;;;;15.13;7.35;;;;;;;;;;5013386;28;20054;-79
2022/11/27 13:56:45;;;;;;;14.02;7.43;;;;;;;;;;4995682;28;20026;-78
2022/11/27 13:59:22;;;;;;;14.20;7.95;;;;;;;;;;5013290;28;20117;-78
2022/11/27 14:01:58;;;;;;;14.05;6.82;;;;;;;;;;5012391;28;20350;-78
2022/11/27 14:04:25;;;;;;;13.88;7.22;;;;;;;;;;5013099;28;20022;-78
2022/11/27 14:07:02;;;;;;;18.33;8.00;;;;;;;;;;5012931;28;20025;-78
2022/11/27 14:09:32;;;;;;;14.93;8.18;;;;;;;;;;5008152;28;20547;-78
2022/11/27 14:11:58;;;;;;;14.63;7.63;;;;;;;;;;4993547;28;20038;-78
2022/11/27 14:14:26;;;;;;;14.13;6.90;;;;;;;;;;4993551;28;20218;-78
2022/11/27 14:17:07;;;;;;;12.88;6.65;;;;;;;;;;4992199;28;20045;-78
2022/11/27 14:19:36;;;;;;;13.60;6.65;;;;;;;;;;4973756;28;20458;-78
2022/11/27 14:22:13;;;;;;;11.75;6.32;;;;;;;;;;4974155;28;20073;-78
2022/11/27 14:24:42;;;;;;;14.52;6.22;;;;;;;;;;4973645;28;20098;-78
2022/11/27 14:27:21;;;;;;;12.80;7.00;;;;;;;;;;4973724;28;20030;-79
2022/11/27 14:29:47;;;;;;;14.07;6.85;;;;;;;;;;4973736;28;20022;-77
2022/11/27 14:32:14;;;;;;;14.43;7.43;;;;;;;;;;4989186;28;20523;-78
2022/11/27 14:34:41;;;;;;;16.80;7.60;;;;;;;;;;5001314;28;20034;-78
2022/11/27 14:37:08;;;;;;;16.85;7.35;;;;;;;;;;4992971;28;20109;-77
2022/11/27 14:39:35;;;;;;;15.07;7.13;;;;;;;;;;5004642;28;20117;-77
2022/11/27 14:42:03;;;;;;;19.45;8.95;;;;;;;;;;5000787;28;20029;-77
2022/11/27 14:44:29;;;;;;;14.85;6.95;;;;;;;;;;4998456;28;20026;-77